sensor_id;sensor_type;location;lat;lon;timestamp;pressure;altitude;pressure_sealevel;temperature;humidity
2549;BME280;1284;53.520;10.248;2022-07-06T00:01:40;101450.19;;;19.35;71.03
2549;BME280;1284;53.520;10.248;2022-07-06T00:04:06;101448.22;;;19.32;71.18
2549;BME280;1284;53.520;10.248;2022-07-06T00:06:32;101452.13;;;19.24;72.15
2549;BME280;1284;53.520;10.248;2022-07-06T00:08:57;101442.00;;;19.21;72.05
2549;BME280;1284;53.520;10.248;2022-07-06T00:11:23;101450.97;;;19.18;72.34
2549;BME280;1284;53.520;10.248;2022-07-06T00:13:49;101454.91;;;19.10;72.95
2549;BME280;1284;53.520;10.248;2022-07-06T00:16:15;101460.75;;;19.12;73.32
2549;BME280;1284;53.520;10.248;2022-07-06T00:18:41;101457.22;;;19.15;73.34
2549;BME280;1284;53.520;10.248;2022-07-06T00:21:06;101456.84;;;19.13;73.50
2549;BME280;1284;53.520;10.248;2022-07-06T00:23:32;101450.22;;;19.14;73.68
2549;BME280;1284;53.520;10.248;2022-07-06T00:25:57;101459.16;;;19.15;74.23
2549;BME280;1284;53.520;10.248;2022-07-06T00:28:23;101459.19;;;19.08;74.43
2549;BME280;1284;53.520;10.248;2022-07-06T00:30:48;101454.91;;;19.10;74.25
2549;BME280;1284;53.520;10.248;2022-07-06T00:33:14;101461.53;;;19.16;74.13
2549;BME280;1284;53.520;10.248;2022-07-06T00:35:40;101452.53;;;19.16;74.24
2549;BME280;1284;53.520;10.248;2022-07-06T00:38:06;101450.59;;;19.16;74.88
2549;BME280;1284;53.520;10.248;2022-07-06T00:40:32;101445.53;;;19.04;75.12
2549;BME280;1284;53.520;10.248;2022-07-06T00:42:57;101447.09;;;19.05;75.32
2549;BME280;1284;53.520;10.248;2022-07-06T00:45:23;101457.22;;;19.12;75.19
2549;BME280;1284;53.520;10.248;2022-07-06T00:47:49;101456.06;;;19.09;74.62
2549;BME280;1284;53.520;10.248;2022-07-06T00:50:17;101452.56;;;19.12;74.62
2549;BME280;1284;53.520;10.248;2022-07-06T00:52:50;101458.41;;;19.00;74.75
2549;BME280;1284;53.520;10.248;2022-07-06T00:55:18;101449.84;;;18.98;74.76
2549;BME280;1284;53.520;10.248;2022-07-06T00:57:44;101445.16;;;19.02;74.58
2549;BME280;1284;53.520;10.248;2022-07-06T01:00:12;101444.38;;;19.02;74.50
2549;BME280;1284;53.520;10.248;2022-07-06T01:02:38;101443.59;;;18.98;74.05
2549;BME280;1284;53.520;10.248;2022-07-06T01:05:05;101446.72;;;18.85;75.12
2549;BME280;1284;53.520;10.248;2022-07-06T01:07:32;101446.72;;;18.82;75.36
2549;BME280;1284;53.520;10.248;2022-07-06T01:09:57;101444.38;;;18.84;75.72
2549;BME280;1284;53.520;10.248;2022-07-06T01:12:23;101451.78;;;18.80;75.40
2549;BME280;1284;53.520;10.248;2022-07-06T01:14:50;101452.19;;;18.85;75.65
2549;BME280;1284;53.520;10.248;2022-07-06T01:17:17;101446.72;;;18.85;75.50
2549;BME280;1284;53.520;10.248;2022-07-06T01:19:43;101445.19;;;18.84;75.87
2549;BME280;1284;53.520;10.248;2022-07-06T01:22:10;101446.75;;;18.89;75.60
2549;BME280;1284;53.520;10.248;2022-07-06T01:24:37;101449.09;;;18.87;75.45
2549;BME280;1284;53.520;10.248;2022-07-06T01:27:06;101447.13;;;18.84;76.02
2549;BME280;1284;53.520;10.248;2022-07-06T01:29:33;101448.28;;;18.83;75.63
2549;BME280;1284;53.520;10.248;2022-07-06T01:31:59;101442.44;;;18.84;75.72
2549;BME280;1284;53.520;10.248;2022-07-06T01:34:25;101435.78;;;18.85;75.68
2549;BME280;1284;53.520;10.248;2022-07-06T01:36:50;101442.44;;;18.74;76.16
2549;BME280;1284;53.520;10.248;2022-07-06T01:39:18;101432.69;;;18.80;75.53
2549;BME280;1284;53.520;10.248;2022-07-06T01:41:44;101435.81;;;18.82;75.76
2549;BME280;1284;53.520;10.248;2022-07-06T01:44:10;101439.72;;;18.77;75.36
2549;BME280;1284;53.520;10.248;2022-07-06T01:46:37;101432.31;;;18.74;75.86
2549;BME280;1284;53.520;10.248;2022-07-06T01:49:03;101435.81;;;18.71;76.06
2549;BME280;1284;53.520;10.248;2022-07-06T01:51:30;101431.53;;;18.70;75.97
2549;BME280;1284;53.520;10.248;2022-07-06T01:53:57;101437.38;;;18.69;76.30
2549;BME280;1284;53.520;10.248;2022-07-06T01:56:24;101427.63;;;18.68;76.26
2549;BME280;1284;53.520;10.248;2022-07-06T01:58:53;101439.72;;;18.67;75.80
2549;BME280;1284;53.520;10.248;2022-07-06T02:01:20;101429.59;;;18.71;75.99
2549;BME280;1284;53.520;10.248;2022-07-06T02:03:46;101434.25;;;18.74;76.24
2549;BME280;1284;53.520;10.248;2022-07-06T02:06:12;101432.69;;;18.73;76.18
2549;BME280;1284;53.520;10.248;2022-07-06T02:08:40;101430.38;;;18.71;76.30
2549;BME280;1284;53.520;10.248;2022-07-06T02:11:07;101437.38;;;18.69;76.71
2549;BME280;1284;53.520;10.248;2022-07-06T02:13:36;101430.75;;;18.66;76.88
2549;BME280;1284;53.520;10.248;2022-07-06T02:16:02;101438.53;;;18.68;76.84
2549;BME280;1284;53.520;10.248;2022-07-06T02:18:28;101442.44;;;18.67;76.48
2549;BME280;1284;53.520;10.248;2022-07-06T02:20:56;101440.91;;;18.66;77.25
2549;BME280;1284;53.520;10.248;2022-07-06T02:23:21;101435.81;;;18.68;77.33
2549;BME280;1284;53.520;10.248;2022-07-06T02:25:47;101439.72;;;18.67;76.74
2549;BME280;1284;53.520;10.248;2022-07-06T02:28:13;101438.94;;;18.66;76.62
2549;BME280;1284;53.520;10.248;2022-07-06T02:30:39;101438.94;;;18.66;75.12
2549;BME280;1284;53.520;10.248;2022-07-06T02:33:05;101438.16;;;18.52;75.49
2549;BME280;1284;53.520;10.248;2022-07-06T02:35:31;101434.28;;;18.60;75.41
2549;BME280;1284;53.520;10.248;2022-07-06T02:37:57;101445.19;;;18.60;75.79
2549;BME280;1284;53.520;10.248;2022-07-06T02:40:23;101440.50;;;18.64;76.47
2549;BME280;1284;53.520;10.248;2022-07-06T02:42:48;101438.16;;;18.59;76.96
2549;BME280;1284;53.520;10.248;2022-07-06T02:45:14;101435.81;;;18.57;77.34
2549;BME280;1284;53.520;10.248;2022-07-06T02:47:40;101436.59;;;18.61;76.77
2549;BME280;1284;53.520;10.248;2022-07-06T02:50:07;101431.50;;;18.56;77.57
2549;BME280;1284;53.520;10.248;2022-07-06T02:52:33;101433.09;;;18.61;76.39
2549;BME280;1284;53.520;10.248;2022-07-06T02:55:00;101431.94;;;18.62;76.91
2549;BME280;1284;53.520;10.248;2022-07-06T02:57:27;101429.97;;;18.62;77.02
2549;BME280;1284;53.520;10.248;2022-07-06T02:59:52;101430.75;;;18.63;76.83
2549;BME280;1284;53.520;10.248;2022-07-06T03:02:18;101443.25;;;18.64;76.33
2549;BME280;1284;53.520;10.248;2022-07-06T03:04:44;101440.13;;;18.62;76.80
2549;BME280;1284;53.520;10.248;2022-07-06T03:07:10;101438.94;;;18.56;76.56
2549;BME280;1284;53.520;10.248;2022-07-06T03:09:35;101437.75;;;18.57;76.63
2549;BME280;1284;53.520;10.248;2022-07-06T03:12:01;101438.16;;;18.62;76.36
2549;BME280;1284;53.520;10.248;2022-07-06T03:14:30;101435.03;;;18.60;75.15
2549;BME280;1284;53.520;10.248;2022-07-06T03:16:55;101438.56;;;18.54;74.23
2549;BME280;1284;53.520;10.248;2022-07-06T03:19:21;101442.06;;;18.58;74.15
2549;BME280;1284;53.520;10.248;2022-07-06T03:21:47;101442.47;;;18.60;73.40
2549;BME280;1284;53.520;10.248;2022-07-06T03:24:13;101445.56;;;18.55;73.69
2549;BME280;1284;53.520;10.248;2022-07-06T03:26:39;101442.84;;;18.48;73.27
2549;BME280;1284;53.520;10.248;2022-07-06T03:29:05;101444.38;;;18.49;73.39
2549;BME280;1284;53.520;10.248;2022-07-06T03:31:31;101442.44;;;18.49;73.90
2549;BME280;1284;53.520;10.248;2022-07-06T03:33:57;101448.69;;;18.46;74.28
2549;BME280;1284;53.520;10.248;2022-07-06T03:36:22;101448.28;;;18.48;73.93
2549;BME280;1284;53.520;10.248;2022-07-06T03:41:14;101442.84;;;18.48;74.24
2549;BME280;1284;53.520;10.248;2022-07-06T03:43:40;101442.44;;;18.46;74.72
2549;BME280;1284;53.520;10.248;2022-07-06T03:46:06;101438.56;;;18.50;74.90
2549;BME280;1284;53.520;10.248;2022-07-06T03:48:32;101441.66;;;18.49;75.41
2549;BME280;1284;53.520;10.248;2022-07-06T03:50:58;101444.00;;;18.50;75.55
2549;BME280;1284;53.520;10.248;2022-07-06T03:53:24;101439.72;;;18.49;76.18
2549;BME280;1284;53.520;10.248;2022-07-06T03:55:49;101447.13;;;18.52;76.28
2549;BME280;1284;53.520;10.248;2022-07-06T03:58:35;101444.00;;;18.50;77.02
2549;BME280;1284;53.520;10.248;2022-07-06T04:01:00;101442.44;;;18.53;77.44
2549;BME280;1284;53.520;10.248;2022-07-06T04:03:26;101429.19;;;18.55;78.20
2549;BME280;1284;53.520;10.248;2022-07-06T04:05:52;101446.34;;;18.52;78.55
2549;BME280;1284;53.520;10.248;2022-07-06T04:08:18;101441.28;;;18.54;78.13
2549;BME280;1284;53.520;10.248;2022-07-06T04:10:50;101442.03;;;18.51;78.73
2549;BME280;1284;53.520;10.248;2022-07-06T04:13:16;101448.28;;;18.55;78.66
2549;BME280;1284;53.520;10.248;2022-07-06T04:15:41;101443.22;;;18.53;79.28
2549;BME280;1284;53.520;10.248;2022-07-06T04:20:48;101447.50;;;18.44;79.54
2549;BME280;1284;53.520;10.248;2022-07-06T04:23:14;101450.22;;;18.44;79.76
2549;BME280;1284;53.520;10.248;2022-07-06T04:25:40;101449.84;;;18.45;79.63
2549;BME280;1284;53.520;10.248;2022-07-06T04:28:06;101451.78;;;18.45;79.11
2549;BME280;1284;53.520;10.248;2022-07-06T04:30:34;101451.41;;;18.46;79.06
2549;BME280;1284;53.520;10.248;2022-07-06T04:33:02;101457.63;;;18.47;79.33
2549;BME280;1284;53.520;10.248;2022-07-06T04:35:31;101458.38;;;18.37;80.05
2549;BME280;1284;53.520;10.248;2022-07-06T04:37:57;101472.00;;;18.30;80.89
2549;BME280;1284;53.520;10.248;2022-07-06T04:40:23;101464.59;;;18.30;81.16
2549;BME280;1284;53.520;10.248;2022-07-06T04:42:52;101457.16;;;18.24;81.71
2549;BME280;1284;53.520;10.248;2022-07-06T04:45:19;101456.03;;;18.25;82.56
2549;BME280;1284;53.520;10.248;2022-07-06T04:47:44;101457.19;;;18.27;82.82
2549;BME280;1284;53.520;10.248;2022-07-06T04:52:37;101452.53;;;18.35;82.61
2549;BME280;1284;53.520;10.248;2022-07-06T04:55:04;101452.94;;;18.40;82.32
2549;BME280;1284;53.520;10.248;2022-07-06T04:57:34;101447.50;;;18.44;81.07
2549;BME280;1284;53.520;10.248;2022-07-06T05:00:01;101447.88;;;18.53;80.56
2549;BME280;1284;53.520;10.248;2022-07-06T05:02:28;101438.16;;;18.59;80.31
2549;BME280;1284;53.520;10.248;2022-07-06T05:04:54;101450.63;;;18.67;80.48
2549;BME280;1284;53.520;10.248;2022-07-06T05:07:19;101450.22;;;18.72;79.12
2549;BME280;1284;53.520;10.248;2022-07-06T05:09:45;101449.84;;;18.77;78.36
2549;BME280;1284;53.520;10.248;2022-07-06T05:12:10;101457.25;;;18.83;78.42
2549;BME280;1284;53.520;10.248;2022-07-06T05:14:36;101462.72;;;18.90;78.66
2549;BME280;1284;53.520;10.248;2022-07-06T05:17:03;101456.47;;;18.97;78.42
2549;BME280;1284;53.520;10.248;2022-07-06T05:19:29;101469.28;;;19.28;77.09
2549;BME280;1284;53.520;10.248;2022-07-06T05:21:55;101479.06;;;19.36;75.76
2549;BME280;1284;53.520;10.248;2022-07-06T05:24:21;101470.88;;;19.33;75.31
2549;BME280;1284;53.520;10.248;2022-07-06T05:26:47;101469.31;;;19.21;75.24
2549;BME280;1284;53.520;10.248;2022-07-06T05:29:13;101464.63;;;19.15;76.01
2549;BME280;1284;53.520;10.248;2022-07-06T05:31:39;101469.31;;;19.11;76.30
2549;BME280;1284;53.520;10.248;2022-07-06T05:34:05;101463.09;;;19.03;76.64
2549;BME280;1284;53.520;10.248;2022-07-06T05:36:31;101462.69;;;19.01;77.04
2549;BME280;1284;53.520;10.248;2022-07-06T05:38:58;101470.09;;;18.97;77.47
2549;BME280;1284;53.520;10.248;2022-07-06T05:41:24;101463.88;;;18.86;78.05
2549;BME280;1284;53.520;10.248;2022-07-06T05:43:50;101467.00;;;18.81;78.17
2549;BME280;1284;53.520;10.248;2022-07-06T05:46:15;101467.03;;;18.77;78.08
2549;BME280;1284;53.520;10.248;2022-07-06T05:48:41;101465.06;;;18.67;77.67
2549;BME280;1284;53.520;10.248;2022-07-06T05:51:25;101471.28;;;18.68;77.95
2549;BME280;1284;53.520;10.248;2022-07-06T05:53:51;101464.66;;;18.69;77.77
2549;BME280;1284;53.520;10.248;2022-07-06T05:56:18;101468.56;;;18.75;77.95
2549;BME280;1284;53.520;10.248;2022-07-06T05:58:45;101461.56;;;18.81;77.17
2549;BME280;1284;53.520;10.248;2022-07-06T06:01:10;101462.72;;;18.87;76.70
2549;BME280;1284;53.520;10.248;2022-07-06T06:03:37;101463.13;;;18.89;77.16
2549;BME280;1284;53.520;10.248;2022-07-06T06:06:04;101465.44;;;18.94;76.76
2549;BME280;1284;53.520;10.248;2022-07-06T06:08:30;101471.69;;;18.91;77.15
2549;BME280;1284;53.520;10.248;2022-07-06T06:10:55;101478.31;;;18.93;78.38
2549;BME280;1284;53.520;10.248;2022-07-06T06:13:23;101475.19;;;18.95;79.46
2549;BME280;1284;53.520;10.248;2022-07-06T06:15:49;101482.59;;;18.84;81.96
2549;BME280;1284;53.520;10.248;2022-07-06T06:20:45;101477.53;;;18.82;81.54
2549;BME280;1284;53.520;10.248;2022-07-06T06:23:11;101481.06;;;18.83;80.93
2549;BME280;1284;53.520;10.248;2022-07-06T06:25:38;101485.72;;;18.72;81.42
2549;BME280;1284;53.520;10.248;2022-07-06T06:28:05;101486.09;;;18.67;82.58
2549;BME280;1284;53.520;10.248;2022-07-06T06:30:31;101490.03;;;18.69;83.58
2549;BME280;1284;53.520;10.248;2022-07-06T06:35:32;101498.22;;;18.66;86.16
2549;BME280;1284;53.520;10.248;2022-07-06T06:37:57;101491.19;;;18.65;86.36
2549;BME280;1284;53.520;10.248;2022-07-06T06:40:23;101491.97;;;18.62;87.26
2549;BME280;1284;53.520;10.248;2022-07-06T06:42:48;101493.50;;;18.63;87.80
2549;BME280;1284;53.520;10.248;2022-07-06T06:45:14;101498.22;;;18.66;87.50
2549;BME280;1284;53.520;10.248;2022-07-06T06:47:39;101492.34;;;18.67;88.88
2549;BME280;1284;53.520;10.248;2022-07-06T06:50:05;101500.16;;;18.76;88.98
2549;BME280;1284;53.520;10.248;2022-07-06T06:52:31;101504.44;;;18.87;89.32
2549;BME280;1284;53.520;10.248;2022-07-06T06:54:56;101504.81;;;18.89;89.24
2549;BME280;1284;53.520;10.248;2022-07-06T06:57:22;101500.94;;;18.98;89.94
2549;BME280;1284;53.520;10.248;2022-07-06T06:59:47;101498.22;;;19.08;90.43
2549;BME280;1284;53.520;10.248;2022-07-06T07:02:13;101494.66;;;19.15;89.08
2549;BME280;1284;53.520;10.248;2022-07-06T07:04:38;101502.47;;;19.23;87.89
2549;BME280;1284;53.520;10.248;2022-07-06T07:07:04;101504.03;;;19.28;88.04
2549;BME280;1284;53.520;10.248;2022-07-06T07:09:29;101503.25;;;19.27;88.38
2549;BME280;1284;53.520;10.248;2022-07-06T07:11:55;101511.47;;;19.34;88.14
2549;BME280;1284;53.520;10.248;2022-07-06T07:14:20;101516.16;;;19.37;87.70
2549;BME280;1284;53.520;10.248;2022-07-06T07:16:46;101517.69;;;19.38;87.23
2549;BME280;1284;53.520;10.248;2022-07-06T07:19:11;101507.16;;;19.40;86.96
2549;BME280;1284;53.520;10.248;2022-07-06T07:21:37;101519.66;;;19.45;86.78
2549;BME280;1284;53.520;10.248;2022-07-06T07:24:03;101521.59;;;19.55;85.87
2549;BME280;1284;53.520;10.248;2022-07-06T07:26:28;101520.75;;;19.65;84.58
2549;BME280;1284;53.520;10.248;2022-07-06T07:28:54;101522.34;;;19.66;81.93
2549;BME280;1284;53.520;10.248;2022-07-06T07:31:19;101520.38;;;19.66;81.04
2549;BME280;1284;53.520;10.248;2022-07-06T07:33:45;101523.13;;;19.66;80.29
2549;BME280;1284;53.520;10.248;2022-07-06T07:36:10;101524.25;;;19.79;81.19
2549;BME280;1284;53.520;10.248;2022-07-06T07:38:36;101524.56;;;19.96;80.17
2549;BME280;1284;53.520;10.248;2022-07-06T07:41:01;101533.94;;;19.98;81.00
2549;BME280;1284;53.520;10.248;2022-07-06T07:43:27;101536.63;;;20.09;80.96
2549;BME280;1284;53.520;10.248;2022-07-06T07:45:52;101531.91;;;20.20;80.45
2549;BME280;1284;53.520;10.248;2022-07-06T07:48:18;101537.34;;;20.27;80.23
2549;BME280;1284;53.520;10.248;2022-07-06T07:50:44;101527.13;;;20.41;78.13
2549;BME280;1284;53.520;10.248;2022-07-06T07:53:09;101531.00;;;20.44;77.50
2549;BME280;1284;53.520;10.248;2022-07-06T07:55:35;101529.44;;;20.43;77.69
2549;BME280;1284;53.520;10.248;2022-07-06T07:58:00;101532.13;;;20.50;77.52
2549;BME280;1284;53.520;10.248;2022-07-06T08:00:26;101531.34;;;20.53;74.69
2549;BME280;1284;53.520;10.248;2022-07-06T08:02:54;101536.44;;;20.51;74.79
2549;BME280;1284;53.520;10.248;2022-07-06T08:05:20;101529.00;;;20.48;75.47
2549;BME280;1284;53.520;10.248;2022-07-06T08:07:45;101532.22;;;20.39;76.38
2549;BME280;1284;53.520;10.248;2022-07-06T08:10:11;101533.38;;;20.42;74.67
2549;BME280;1284;53.520;10.248;2022-07-06T08:12:37;101532.22;;;20.36;72.52
2549;BME280;1284;53.520;10.248;2022-07-06T08:15:03;101542.81;;;20.27;71.54
2549;BME280;1284;53.520;10.248;2022-07-06T08:17:29;101534.59;;;20.27;71.40
2549;BME280;1284;53.520;10.248;2022-07-06T08:19:55;101538.16;;;20.24;71.26
2549;BME280;1284;53.520;10.248;2022-07-06T08:24:46;101532.28;;;20.25;71.13
2549;BME280;1284;53.520;10.248;2022-07-06T08:27:12;101534.63;;;20.23;71.71
2549;BME280;1284;53.520;10.248;2022-07-06T08:29:37;101539.28;;;20.30;70.85
2549;BME280;1284;53.520;10.248;2022-07-06T08:32:03;101540.84;;;20.31;70.31
2549;BME280;1284;53.520;10.248;2022-07-06T08:34:29;101529.88;;;20.38;69.88
2549;BME280;1284;53.520;10.248;2022-07-06T08:36:54;101525.91;;;20.42;68.12
2549;BME280;1284;53.520;10.248;2022-07-06T08:39:20;101535.28;;;20.48;67.18
2549;BME280;1284;53.520;10.248;2022-07-06T08:41:47;101540.25;;;20.64;66.71
2549;BME280;1284;53.520;10.248;2022-07-06T08:44:17;101538.59;;;20.77;65.81
2549;BME280;1284;53.520;10.248;2022-07-06T08:46:43;101534.97;;;20.91;66.12
2549;BME280;1284;53.520;10.248;2022-07-06T08:49:13;101537.72;;;20.91;64.20
2549;BME280;1284;53.520;10.248;2022-07-06T08:51:40;101546.72;;;20.91;63.51
2549;BME280;1284;53.520;10.248;2022-07-06T08:54:07;101539.72;;;20.83;62.48
2549;BME280;1284;53.520;10.248;2022-07-06T08:56:32;101546.78;;;20.84;63.34
2549;BME280;1284;53.520;10.248;2022-07-06T08:58:59;101540.94;;;20.79;64.51
2549;BME280;1284;53.520;10.248;2022-07-06T09:01:25;101541.34;;;20.77;64.07
2549;BME280;1284;53.520;10.248;2022-07-06T09:06:25;101541.47;;;20.59;65.65
2549;BME280;1284;53.520;10.248;2022-07-06T09:08:55;101542.41;;;20.32;67.19
2549;BME280;1284;53.520;10.248;2022-07-06T09:11:22;101533.41;;;20.35;68.92
2549;BME280;1284;53.520;10.248;2022-07-06T09:13:49;101544.38;;;20.28;69.04
2549;BME280;1284;53.520;10.248;2022-07-06T09:16:16;101541.63;;;20.31;69.56
2549;BME280;1284;53.520;10.248;2022-07-06T09:18:46;101544.72;;;20.37;68.09
2549;BME280;1284;53.520;10.248;2022-07-06T09:21:22;101549.03;;;20.34;68.21
2549;BME280;1284;53.520;10.248;2022-07-06T09:23:56;101550.56;;;20.39;68.93
2549;BME280;1284;53.520;10.248;2022-07-06T09:26:22;101559.16;;;20.41;69.37
2549;BME280;1284;53.520;10.248;2022-07-06T09:28:48;101563.47;;;20.38;69.26
2549;BME280;1284;53.520;10.248;2022-07-06T09:31:14;101574.09;;;20.26;69.12
2549;BME280;1284;53.520;10.248;2022-07-06T09:33:56;101574.50;;;20.14;70.71
2549;BME280;1284;53.520;10.248;2022-07-06T09:39:25;101584.66;;;20.24;71.89
2549;BME280;1284;53.520;10.248;2022-07-06T09:41:55;101578.75;;;20.29;71.95
2549;BME280;1284;53.520;10.248;2022-07-06T09:46:48;101572.88;;;20.37;72.73
2549;BME280;1284;53.520;10.248;2022-07-06T09:49:18;101573.63;;;20.45;72.55
2549;BME280;1284;53.520;10.248;2022-07-06T09:51:45;101575.09;;;20.60;70.93
2549;BME280;1284;53.520;10.248;2022-07-06T09:54:12;101569.94;;;20.73;68.65
2549;BME280;1284;53.520;10.248;2022-07-06T09:56:38;101573.34;;;20.87;67.63
2549;BME280;1284;53.520;10.248;2022-07-06T09:59:09;101578.78;;;20.94;65.61
2549;BME280;1284;53.520;10.248;2022-07-06T10:01:36;101577.22;;;20.93;65.45
2549;BME280;1284;53.520;10.248;2022-07-06T10:04:02;101576.47;;;20.89;64.67
2549;BME280;1284;53.520;10.248;2022-07-06T10:06:27;101576.84;;;20.91;63.58
2549;BME280;1284;53.520;10.248;2022-07-06T10:08:57;101574.16;;;20.84;65.49
2549;BME280;1284;53.520;10.248;2022-07-06T10:11:24;101581.94;;;20.89;65.61
2549;BME280;1284;53.520;10.248;2022-07-06T10:13:50;101566.19;;;21.00;65.05
2549;BME280;1284;53.520;10.248;2022-07-06T10:16:21;101562.97;;;21.19;62.58
2549;BME280;1284;53.520;10.248;2022-07-06T10:18:48;101565.91;;;21.42;60.02
2549;BME280;1284;53.520;10.248;2022-07-06T10:21:16;101558.63;;;21.63;60.67
2549;BME280;1284;53.520;10.248;2022-07-06T10:23:43;101562.06;;;21.74;59.24
2549;BME280;1284;53.520;10.248;2022-07-06T10:26:09;101555.47;;;21.68;58.62
2549;BME280;1284;53.520;10.248;2022-07-06T10:28:35;101560.78;;;21.82;61.99
2549;BME280;1284;53.520;10.248;2022-07-06T10:31:02;101561.50;;;21.89;60.61
2549;BME280;1284;53.520;10.248;2022-07-06T10:33:27;101563.75;;;21.98;60.36
2549;BME280;1284;53.520;10.248;2022-07-06T10:35:54;101561.34;;;22.03;60.06
2549;BME280;1284;53.520;10.248;2022-07-06T10:38:33;101555.44;;;22.05;59.84
2549;BME280;1284;53.520;10.248;2022-07-06T10:41:07;101553.34;;;22.16;59.06
2549;BME280;1284;53.520;10.248;2022-07-06T10:43:34;101561.63;;;22.12;58.02
2549;BME280;1284;53.520;10.248;2022-07-06T10:48:38;101553.34;;;21.82;60.54
2549;BME280;1284;53.520;10.248;2022-07-06T10:51:05;101557.09;;;21.62;61.63
2549;BME280;1284;53.520;10.248;2022-07-06T10:53:33;101559.59;;;21.45;61.67
2549;BME280;1284;53.520;10.248;2022-07-06T10:56:02;101552.69;;;21.30;63.17
2549;BME280;1284;53.520;10.248;2022-07-06T10:58:39;101558.72;;;21.11;62.44
2549;BME280;1284;53.520;10.248;2022-07-06T11:01:07;101569.06;;;20.86;62.98
2549;BME280;1284;53.520;10.248;2022-07-06T11:03:48;101557.41;;;20.72;63.41
2549;BME280;1284;53.520;10.248;2022-07-06T11:11:37;101559.63;;;20.29;65.15
2549;BME280;1284;53.520;10.248;2022-07-06T11:14:16;101560.03;;;20.24;64.03
2549;BME280;1284;53.520;10.248;2022-07-06T11:19:13;101570.19;;;20.23;63.83
2549;BME280;1284;53.520;10.248;2022-07-06T11:21:45;101571.81;;;20.00;68.05
2549;BME280;1284;53.520;10.248;2022-07-06T11:24:18;101571.44;;;20.05;68.51
2549;BME280;1284;53.520;10.248;2022-07-06T11:26:46;101572.97;;;20.06;68.95
2549;BME280;1284;53.520;10.248;2022-07-06T11:29:13;101579.25;;;19.92;69.38
2549;BME280;1284;53.520;10.248;2022-07-06T11:31:41;101573.38;;;20.01;70.69
2549;BME280;1284;53.520;10.248;2022-07-06T11:34:09;101573.78;;;19.92;71.80
2549;BME280;1284;53.520;10.248;2022-07-06T11:36:36;101557.41;;;19.85;71.87
2549;BME280;1284;53.520;10.248;2022-07-06T11:39:03;101562.09;;;19.92;73.08
2549;BME280;1284;53.520;10.248;2022-07-06T11:41:31;101560.09;;;19.96;72.67
2549;BME280;1284;53.520;10.248;2022-07-06T11:43:56;101562.03;;;20.06;72.40
2549;BME280;1284;53.520;10.248;2022-07-06T11:49:08;101543.25;;;20.22;70.58
2549;BME280;1284;53.520;10.248;2022-07-06T11:51:36;101540.41;;;20.39;69.35
2549;BME280;1284;53.520;10.248;2022-07-06T11:54:14;101541.84;;;20.58;68.38
2549;BME280;1284;53.520;10.248;2022-07-06T11:56:49;101532.63;;;20.89;66.35
2549;BME280;1284;53.520;10.248;2022-07-06T11:59:16;101522.66;;;21.16;64.16
2549;BME280;1284;53.520;10.248;2022-07-06T12:01:45;101528.72;;;21.38;64.66
2549;BME280;1284;53.520;10.248;2022-07-06T12:04:10;101532.09;;;21.52;62.47
2549;BME280;1284;53.520;10.248;2022-07-06T12:06:36;101524.66;;;21.53;61.59
2549;BME280;1284;53.520;10.248;2022-07-06T12:09:03;101520.91;;;21.74;61.87
2549;BME280;1284;53.520;10.248;2022-07-06T12:11:32;101516.00;;;21.92;62.25
2549;BME280;1284;53.520;10.248;2022-07-06T12:13:59;101515.16;;;21.98;62.56
2549;BME280;1284;53.520;10.248;2022-07-06T12:16:45;101512.00;;;22.00;61.13
2549;BME280;1284;53.520;10.248;2022-07-06T12:19:11;101513.13;;;22.02;61.18
2549;BME280;1284;53.520;10.248;2022-07-06T12:21:47;101512.81;;;21.97;60.97
2549;BME280;1284;53.520;10.248;2022-07-06T12:24:24;101512.03;;;21.96;58.75
2549;BME280;1284;53.520;10.248;2022-07-06T12:26:52;101501.38;;;22.02;57.92
2549;BME280;1284;53.520;10.248;2022-07-06T12:29:19;101495.34;;;22.14;60.02
2549;BME280;1284;53.520;10.248;2022-07-06T12:31:51;101503.41;;;22.24;58.91
2549;BME280;1284;53.520;10.248;2022-07-06T12:34:20;101502.34;;;22.45;58.50
2549;BME280;1284;53.520;10.248;2022-07-06T12:36:55;101493.91;;;22.59;55.68
2549;BME280;1284;53.520;10.248;2022-07-06T12:39:23;101496.56;;;22.66;54.37
2549;BME280;1284;53.520;10.248;2022-07-06T12:41:55;101499.19;;;22.73;53.95
2549;BME280;1284;53.520;10.248;2022-07-06T12:44:25;101498.84;;;22.71;53.57
2549;BME280;1284;53.520;10.248;2022-07-06T12:49:27;101482.00;;;22.92;53.55
2549;BME280;1284;53.520;10.248;2022-07-06T12:54:20;101484.00;;;23.11;52.97
2549;BME280;1284;53.520;10.248;2022-07-06T12:57:09;101478.75;;;23.20;54.27
2549;BME280;1284;53.520;10.248;2022-07-06T12:59:40;101477.00;;;23.30;52.67
2549;BME280;1284;53.520;10.248;2022-07-06T13:02:07;101487.06;;;23.17;53.34
2549;BME280;1284;53.520;10.248;2022-07-06T13:04:35;101482.13;;;23.08;52.98
2549;BME280;1284;53.520;10.248;2022-07-06T13:07:02;101485.03;;;22.98;53.56
2549;BME280;1284;53.520;10.248;2022-07-06T13:09:29;101491.75;;;22.97;53.35
2549;BME280;1284;53.520;10.248;2022-07-06T13:11:54;101477.81;;;22.84;53.84
2549;BME280;1284;53.520;10.248;2022-07-06T13:14:20;101475.41;;;22.86;53.41
2549;BME280;1284;53.520;10.248;2022-07-06T13:16:47;101483.91;;;22.95;53.34
2549;BME280;1284;53.520;10.248;2022-07-06T13:19:13;101479.13;;;23.22;52.46
2549;BME280;1284;53.520;10.248;2022-07-06T13:21:39;101473.19;;;23.24;52.12
2549;BME280;1284;53.520;10.248;2022-07-06T13:24:05;101471.34;;;23.17;51.67
2549;BME280;1284;53.520;10.248;2022-07-06T13:26:31;101473.34;;;23.17;52.52
2549;BME280;1284;53.520;10.248;2022-07-06T13:29:00;101471.47;;;23.10;52.42
2549;BME280;1284;53.520;10.248;2022-07-06T13:31:26;101477.34;;;23.12;51.99
2549;BME280;1284;53.520;10.248;2022-07-06T13:33:53;101481.69;;;23.10;52.06
2549;BME280;1284;53.520;10.248;2022-07-06T13:36:18;101474.50;;;23.16;52.36
2549;BME280;1284;53.520;10.248;2022-07-06T13:38:45;101474.50;;;23.16;52.79
2549;BME280;1284;53.520;10.248;2022-07-06T13:41:11;101477.34;;;23.12;53.98